Time,TemperatureF,DewpointF,PressureIn,WindDirection,WindDirectionDegrees,WindSpeedMPH,WindSpeedGustMPH,Humidity,HourlyPrecipIn,Conditions,Clouds,dailyrainin,SoftwareType,DateUTC
2013-02-20 00:00:00,49.9,47.1,29.90,NW,309,4.0,12.0,90,0.00,,,0.03,Wunderground v.1.15,2013-02-20 05:00:00,
2013-02-20 00:05:00,49.7,46.9,29.90,NW,306,4.0,9.0,90,0.00,,,0.03,Wunderground v.1.15,2013-02-20 05:05:00,
2013-02-20 00:10:00,49.6,46.8,29.90,NW,306,5.0,5.0,90,0.00,,,0.03,Wunderground v.1.15,2013-02-20 05:10:00,
2013-02-20 00:15:00,49.6,46.8,29.90,NW,304,8.0,8.0,90,0.00,,,0.03,Wunderground v.1.15,2013-02-20 05:15:00,
2013-02-20 00:17:00,49.5,46.7,29.90,NW,304,6.0,8.0,90,0.00,,,0.03,Wunderground v.1.15,2013-02-20 05:17:00,
2013-02-20 00:23:00,49.5,47.0,29.90,WNW,295,6.0,9.0,91,0.00,,,0.03,Wunderground v.1.15,2013-02-20 05:23:00,
2013-02-20 00:29:00,49.6,47.1,29.90,WNW,294,6.0,9.0,91,0.00,,,0.03,Wunderground v.1.15,2013-02-20 05:29:00,
2013-02-20 00:35:00,49.8,47.3,29.90,NW,304,7.0,12.0,91,0.00,,,0.03,Wunderground v.1.15,2013-02-20 05:35:00,
2013-02-20 00:40:00,50.0,47.2,29.91,NW,305,7.0,7.0,90,0.00,,,0.03,Wunderground v.1.15,2013-02-20 05:40:00,
2013-02-20 00:46:00,50.0,46.9,29.91,NW,304,7.0,11.0,89,0.00,,,0.03,Wunderground v.1.15,2013-02-20 05:46:00,
2013-02-20 00:52:00,50.0,46.9,29.91,NW,307,5.0,12.0,89,0.00,,,0.03,Wunderground v.1.15,2013-02-20 05:52:00,
2013-02-20 00:57:00,49.9,46.8,29.91,NW,313,6.0,12.0,89,0.00,,,0.03,Wunderground v.1.15,2013-02-20 05:57:00,
2013-02-20 01:02:00,49.6,46.5,29.91,WNW,303,6.0,10.0,89,0.00,,,0.03,Wunderground v.1.15,2013-02-20 06:02:00,
2013-02-20 01:07:00,49.5,46.4,29.91,WNW,302,10.0,11.0,89,0.00,,,0.03,Wunderground v.1.15,2013-02-20 06:07:00,
2013-02-20 01:12:00,49.5,46.4,29.91,NW,305,6.0,8.0,89,0.00,,,0.03,Wunderground v.1.15,2013-02-20 06:12:00,
2013-02-20 01:17:00,49.5,46.1,29.91,WNW,302,9.0,9.0,88,0.00,,,0.03,Wunderground v.1.15,2013-02-20 06:17:00,
2013-02-20 01:22:00,49.5,46.1,29.91,NW,304,9.0,9.0,88,0.00,,,0.03,Wunderground v.1.15,2013-02-20 06:22:00,
2013-02-20 01:28:00,49.4,45.7,29.91,WNW,292,11.0,11.0,87,0.00,,,0.03,Wunderground v.1.15,2013-02-20 06:28:00,
2013-02-20 01:33:00,49.3,45.6,29.91,WNW,290,11.0,11.0,87,0.00,,,0.03,Wunderground v.1.15,2013-02-20 06:33:00,
2013-02-20 01:39:00,49.2,45.5,29.91,WNW,298,12.0,12.0,87,0.00,,,0.03,Wunderground v.1.15,2013-02-20 06:39:00,
2013-02-20 01:45:00,49.1,45.4,29.91,WNW,302,8.0,12.0,87,0.00,,,0.03,Wunderground v.1.15,2013-02-20 06:45:00,
2013-02-20 01:50:00,49.0,45.3,29.91,WNW,298,5.0,10.0,87,0.00,,,0.03,Wunderground v.1.15,2013-02-20 06:50:00,
2013-02-20 01:56:00,48.9,45.5,29.91,WNW,302,7.0,10.0,88,0.00,,,0.03,Wunderground v.1.15,2013-02-20 06:56:00,
2013-02-20 02:01:00,48.8,45.4,29.91,NW,307,9.0,13.0,88,0.00,,,0.03,Wunderground v.1.15,2013-02-20 07:01:00,
2013-02-20 02:06:00,48.8,45.4,29.91,WNW,296,6.0,13.0,88,0.00,,,0.03,Wunderground v.1.15,2013-02-20 07:06:00,
2013-02-20 02:11:00,48.7,45.3,29.91,WNW,294,7.0,10.0,88,0.00,,,0.03,Wunderground v.1.15,2013-02-20 07:11:00,
2013-02-20 02:16:00,48.6,45.2,29.91,WNW,298,6.0,12.0,88,0.00,,,0.03,Wunderground v.1.15,2013-02-20 07:16:00,
2013-02-20 02:21:00,48.5,45.1,29.91,NW,308,6.0,14.0,88,0.00,,,0.03,Wunderground v.1.15,2013-02-20 07:21:00,
2013-02-20 02:26:00,48.5,45.1,29.91,WNW,284,5.0,14.0,88,0.00,,,0.03,Wunderground v.1.15,2013-02-20 07:26:00,
2013-02-20 02:31:00,48.4,45.0,29.92,WNW,294,9.0,12.0,88,0.00,,,0.03,Wunderground v.1.15,2013-02-20 07:31:00,
2013-02-20 02:36:00,48.4,45.3,29.92,WNW,296,11.0,12.0,89,0.00,,,0.03,Wunderground v.1.15,2013-02-20 07:36:00,
2013-02-20 02:41:00,48.4,45.3,29.92,WNW,298,5.0,11.0,89,0.00,,,0.03,Wunderground v.1.15,2013-02-20 07:41:00,
2013-02-20 02:46:00,48.4,45.3,29.92,WNW,287,6.0,14.0,89,0.00,,,0.03,Wunderground v.1.15,2013-02-20 07:46:00,
2013-02-20 02:51:00,48.4,45.3,29.92,WNW,290,5.0,11.0,89,0.00,,,0.03,Wunderground v.1.15,2013-02-20 07:51:00,
2013-02-20 02:56:00,48.4,45.3,29.92,WNW,300,12.0,16.0,89,0.00,,,0.03,Wunderground v.1.15,2013-02-20 07:56:00,
2013-02-20 03:05:00,48.5,45.1,29.93,WNW,290,9.0,15.0,88,0.00,,,0.03,Wunderground v.1.15,2013-02-20 08:05:00,
2013-02-20 03:10:00,48.5,44.8,29.93,WNW,300,7.0,11.0,87,0.00,,,0.03,Wunderground v.1.15,2013-02-20 08:10:00,
2013-02-20 03:15:00,48.5,44.8,29.93,WNW,284,10.0,15.0,87,0.00,,,0.03,Wunderground v.1.15,2013-02-20 08:15:00,
2013-02-20 03:20:00,48.5,44.8,29.93,NW,310,5.0,15.0,87,0.00,,,0.03,Wunderground v.1.15,2013-02-20 08:20:00,
2013-02-20 03:25:00,48.3,44.6,29.93,WNW,296,9.0,14.0,87,0.00,,,0.03,Wunderground v.1.15,2013-02-20 08:25:00,
2013-02-20 03:30:00,48.2,44.5,29.93,NW,306,6.0,14.0,87,0.00,,,0.03,Wunderground v.1.15,2013-02-20 08:30:00,
2013-02-20 03:35:00,48.1,44.4,29.93,WNW,286,6.0,11.0,87,0.00,,,0.03,Wunderground v.1.15,2013-02-20 08:35:00,
2013-02-20 03:40:00,48.0,44.3,29.93,WNW,302,11.0,11.0,87,0.00,,,0.03,Wunderground v.1.15,2013-02-20 08:40:00,
2013-02-20 03:45:00,47.9,43.9,29.93,WNW,303,11.0,15.0,86,0.00,,,0.03,Wunderground v.1.15,2013-02-20 08:45:00,
2013-02-20 03:50:00,47.9,43.9,29.94,WNW,302,10.0,10.0,86,0.00,,,0.03,Wunderground v.1.15,2013-02-20 08:50:00,
2013-02-20 03:55:00,47.8,44.1,29.93,NW,308,9.0,12.0,87,0.00,,,0.03,Wunderground v.1.15,2013-02-20 08:55:00,
2013-02-20 04:00:00,47.6,43.6,29.94,WNW,287,5.0,12.0,86,0.00,,,0.03,Wunderground v.1.15,2013-02-20 09:00:00,
2013-02-20 04:05:00,47.5,43.5,29.94,WNW,300,8.0,13.0,86,0.00,,,0.03,Wunderground v.1.15,2013-02-20 09:05:00,
2013-02-20 04:10:00,47.4,43.4,29.94,NW,305,11.0,12.0,86,0.00,,,0.03,Wunderground v.1.15,2013-02-20 09:10:00,
2013-02-20 04:15:00,47.3,43.3,29.94,NW,304,10.0,13.0,86,0.00,,,0.03,Wunderground v.1.15,2013-02-20 09:15:00,
2013-02-20 04:20:00,47.2,43.2,29.94,WNW,297,7.0,11.0,86,0.00,,,0.03,Wunderground v.1.15,2013-02-20 09:20:00,
2013-02-20 04:26:00,47.1,42.8,29.95,NW,311,8.0,14.0,85,0.00,,,0.03,Wunderground v.1.15,2013-02-20 09:26:00,
2013-02-20 04:31:00,47.0,42.4,29.94,NW,306,13.0,14.0,84,0.00,,,0.03,Wunderground v.1.15,2013-02-20 09:31:00,
2013-02-20 04:36:00,47.0,42.1,29.95,NW,309,11.0,15.0,83,0.00,,,0.03,Wunderground v.1.15,2013-02-20 09:36:00,
2013-02-20 04:41:00,46.9,41.1,29.95,NNW,329,14.0,14.0,80,0.00,,,0.03,Wunderground v.1.15,2013-02-20 09:41:00,
2013-02-20 04:46:00,47.0,40.8,29.96,NW,315,10.0,18.0,79,0.00,,,0.03,Wunderground v.1.15,2013-02-20 09:46:00,
2013-02-20 04:51:00,47.0,41.1,29.96,NW,309,10.0,16.0,80,0.00,,,0.03,Wunderground v.1.15,2013-02-20 09:51:00,
2013-02-20 04:56:00,46.8,40.3,29.97,NW,317,14.0,19.0,78,0.00,,,0.03,Wunderground v.1.15,2013-02-20 09:56:00,
2013-02-20 05:01:00,46.7,38.9,29.97,NW,326,17.0,18.0,74,0.00,,,0.03,Wunderground v.1.15,2013-02-20 10:01:00,
2013-02-20 05:06:00,46.7,38.5,29.97,NW,315,12.0,19.0,73,0.00,,,0.03,Wunderground v.1.15,2013-02-20 10:06:00,
2013-02-20 05:11:00,46.7,39.2,29.97,NW,323,12.0,15.0,75,0.00,,,0.03,Wunderground v.1.15,2013-02-20 10:11:00,
2013-02-20 05:16:00,46.6,38.8,29.97,NW,322,17.0,21.0,74,0.00,,,0.03,Wunderground v.1.15,2013-02-20 10:16:00,
2013-02-20 05:21:00,46.4,37.9,29.97,NW,313,13.0,17.0,72,0.00,,,0.03,Wunderground v.1.15,2013-02-20 10:21:00,
2013-02-20 05:26:00,46.5,38.3,29.97,NW,310,11.0,19.0,73,0.00,,,0.03,Wunderground v.1.15,2013-02-20 10:26:00,
2013-02-20 05:31:00,46.5,37.2,29.98,NW,319,14.0,17.0,70,0.00,,,0.03,Wunderground v.1.15,2013-02-20 10:31:00,
2013-02-20 05:36:00,46.4,37.1,29.98,NW,325,11.0,19.0,70,0.00,,,0.03,Wunderground v.1.15,2013-02-20 10:36:00,
2013-02-20 05:41:00,46.3,36.3,29.98,NW,306,13.0,18.0,68,0.00,,,0.03,Wunderground v.1.15,2013-02-20 10:41:00,
2013-02-20 05:46:00,46.3,36.7,29.98,WNW,295,15.0,18.0,69,0.00,,,0.03,Wunderground v.1.15,2013-02-20 10:46:00,
2013-02-20 05:51:00,46.1,35.4,29.99,NW,317,15.0,18.0,66,0.00,,,0.03,Wunderground v.1.15,2013-02-20 10:51:00,
2013-02-20 05:56:00,46.1,34.6,29.99,NW,321,17.0,20.0,64,0.00,,,0.03,Wunderground v.1.15,2013-02-20 10:56:00,
2013-02-20 06:01:00,46.0,34.9,29.99,NW,323,10.0,19.0,65,0.00,,,0.03,Wunderground v.1.15,2013-02-20 11:01:00,
2013-02-20 06:06:00,45.9,33.2,29.99,NNW,331,14.0,21.0,61,0.00,,,0.03,Wunderground v.1.15,2013-02-20 11:06:00,
2013-02-20 06:11:00,45.8,33.9,29.99,NW,322,15.0,18.0,63,0.00,,,0.03,Wunderground v.1.15,2013-02-20 11:11:00,
2013-02-20 06:16:00,45.7,33.4,30.00,NW,313,13.0,21.0,62,0.00,,,0.03,Wunderground v.1.15,2013-02-20 11:16:00,
2013-02-20 06:21:00,45.6,32.9,30.00,NNW,328,16.0,20.0,61,0.00,,,0.03,Wunderground v.1.15,2013-02-20 11:21:00,
2013-02-20 06:26:00,45.5,34.0,30.00,NW,313,10.0,20.0,64,0.00,,,0.03,Wunderground v.1.15,2013-02-20 11:26:00,
2013-02-20 06:31:00,45.4,32.7,30.01,NW,321,16.0,17.0,61,0.00,,,0.03,Wunderground v.1.15,2013-02-20 11:31:00,
2013-02-20 06:36:00,45.4,33.5,30.01,NNW,327,14.0,18.0,63,0.00,,,0.03,Wunderground v.1.15,2013-02-20 11:36:00,